createdAt,value
2019-04-10T00:01:48.977Z,32.00
2019-04-10T00:04:18.876Z,27.93
2019-04-10T00:06:48.184Z,28.45
2019-04-10T00:09:17.349Z,29.37
2019-04-10T00:11:47.208Z,29.42
2019-04-10T00:14:16.432Z,29.65
2019-04-10T00:16:46.644Z,28.95
2019-04-10T00:19:15.750Z,31.70
2019-04-10T00:21:45.227Z,30.30
2019-04-10T00:24:15.304Z,32.70
2019-04-10T00:26:44.674Z,30.35
2019-04-10T00:29:14.136Z,29.95
2019-04-10T00:31:43.244Z,29.07
2019-04-10T00:34:12.212Z,29.60
2019-04-10T00:36:41.527Z,30.45
2019-04-10T00:39:10.731Z,33.50
2019-04-10T00:41:40.613Z,35.13
2019-04-10T00:44:09.781Z,33.63
2019-04-10T00:46:38.779Z,28.98
2019-04-10T00:49:07.803Z,30.62
2019-04-10T00:51:36.762Z,26.40
2019-04-10T00:54:05.759Z,30.05
2019-04-10T00:56:34.836Z,30.25
2019-04-10T00:59:03.954Z,30.95
2019-04-10T01:01:33.988Z,28.15
2019-04-10T01:04:04.317Z,32.65
2019-04-10T01:06:33.823Z,30.57
2019-04-10T01:09:08.967Z,33.00
2019-04-10T01:11:39.160Z,30.37
2019-04-10T01:14:08.310Z,27.80
2019-04-10T01:16:37.760Z,29.50
2019-04-10T01:19:07.828Z,30.37
2019-04-10T01:21:36.925Z,29.72
2019-04-10T01:24:06.152Z,31.23
2019-04-10T01:26:35.180Z,27.42
2019-04-10T01:29:05.116Z,29.27
2019-04-10T01:31:35.111Z,31.00
2019-04-10T01:34:05.240Z,28.83
2019-04-10T01:36:35.330Z,29.35
2019-04-10T01:39:08.710Z,31.52
2019-04-10T01:41:37.742Z,26.77
2019-04-10T01:44:07.622Z,29.87
2019-04-10T01:46:38.086Z,30.45
2019-04-10T01:49:07.201Z,31.77
2019-04-10T01:51:36.278Z,31.57
2019-04-10T01:54:05.218Z,32.30
2019-04-10T01:56:36.126Z,33.80
2019-04-10T01:59:05.643Z,32.48
2019-04-10T02:01:36.803Z,33.85
2019-04-10T02:04:06.740Z,32.38
2019-04-10T02:06:36.191Z,32.63
2019-04-10T02:09:09.590Z,33.20
2019-04-10T02:11:39.773Z,31.42
2019-04-10T02:14:09.094Z,35.28
2019-04-10T02:16:38.983Z,33.35
2019-04-10T02:19:08.290Z,34.67
2019-04-10T02:21:38.029Z,33.95
2019-04-10T02:24:07.138Z,29.20
2019-04-10T02:26:36.265Z,32.60
2019-04-10T02:29:05.300Z,32.85
2019-04-10T02:31:34.649Z,31.70
2019-04-10T02:34:04.802Z,32.23
2019-04-10T02:36:36.206Z,33.08
2019-04-10T02:39:17.870Z,32.58
2019-04-10T02:41:38.636Z,31.57
2019-04-10T02:44:07.958Z,31.82
2019-04-10T02:46:38.721Z,28.65
2019-04-10T02:49:08.293Z,28.85
2019-04-10T02:51:38.882Z,31.75
2019-04-10T02:54:09.405Z,31.45
2019-04-10T02:56:39.165Z,33.45
2019-04-10T02:59:09.391Z,32.10
2019-04-10T03:01:39.939Z,32.35
2019-04-10T03:04:09.805Z,31.52
2019-04-10T03:06:39.926Z,31.52
2019-04-10T03:09:27.778Z,30.82
2019-04-10T03:11:39.756Z,32.40
2019-04-10T03:14:10.605Z,29.32
2019-04-10T03:16:41.771Z,32.93
2019-04-10T03:19:11.641Z,37.08
2019-04-10T03:21:40.777Z,34.55
2019-04-10T03:24:09.811Z,31.30
2019-04-10T03:26:39.491Z,28.83
2019-04-10T03:29:08.758Z,31.57
2019-04-10T03:31:39.210Z,32.98
2019-04-10T03:34:14.311Z,30.77
2019-04-10T03:36:45.422Z,31.80
2019-04-10T03:39:15.363Z,31.85
2019-04-10T03:41:44.724Z,31.02
2019-04-10T03:44:14.537Z,27.87
2019-04-10T03:46:44.767Z,35.00
2019-04-10T03:49:14.035Z,30.35
2019-04-10T03:51:43.071Z,31.48
2019-04-10T03:54:13.145Z,29.92
2019-04-10T03:56:42.354Z,32.28
2019-04-10T03:59:11.782Z,28.42
2019-04-10T04:01:40.973Z,35.63
2019-04-10T04:04:10.151Z,31.65
2019-04-10T04:06:39.836Z,32.45
2019-04-10T04:09:11.648Z,30.45
2019-04-10T04:11:39.964Z,35.00
2019-04-10T04:14:09.035Z,36.05
2019-04-10T04:16:38.086Z,38.00
2019-04-10T04:19:07.995Z,32.67
2019-04-10T04:21:37.045Z,32.35
2019-04-10T04:24:07.124Z,32.25
2019-04-10T04:26:37.095Z,38.40
2019-04-10T04:29:06.269Z,30.48
2019-04-10T04:31:35.411Z,33.63
2019-04-10T04:34:04.586Z,35.73
2019-04-10T04:36:33.631Z,33.65
2019-04-10T04:39:12.775Z,36.53
2019-04-10T04:41:33.855Z,36.63
2019-04-10T04:44:03.958Z,35.28
2019-04-10T04:46:33.099Z,43.17
2019-04-10T04:49:02.339Z,36.50
2019-04-10T04:51:31.471Z,38.23
2019-04-10T04:54:01.001Z,36.77
2019-04-10T04:56:30.211Z,36.68
2019-04-10T04:58:59.469Z,43.25
2019-04-10T05:01:29.628Z,40.45
2019-04-10T05:03:58.814Z,39.00
2019-04-10T05:06:27.775Z,39.58
2019-04-10T05:08:56.880Z,42.98
2019-04-10T05:11:26.595Z,43.28
2019-04-10T05:13:55.988Z,47.13
2019-04-10T05:16:25.264Z,42.45
2019-04-10T05:18:54.364Z,44.98
2019-04-10T05:21:23.529Z,45.92
2019-04-10T05:23:53.375Z,44.08
2019-04-10T05:26:22.837Z,44.50
2019-04-10T05:28:52.859Z,41.75
2019-04-10T05:31:22.102Z,39.38
2019-04-10T05:33:51.295Z,43.17
2019-04-10T05:36:21.510Z,42.48
2019-04-10T05:38:51.118Z,41.83
2019-04-10T05:41:21.713Z,45.15
2019-04-10T05:43:51.193Z,43.68
2019-04-10T05:46:21.457Z,43.95
2019-04-10T05:48:50.678Z,43.83
2019-04-10T05:51:19.627Z,45.90
2019-04-10T05:53:51.056Z,48.20
2019-04-10T05:56:20.581Z,42.03
2019-04-10T05:58:49.829Z,46.75
2019-04-10T06:01:30.461Z,49.35
2019-04-10T06:03:49.710Z,46.68
2019-04-10T06:06:18.712Z,46.85
2019-04-10T06:08:47.673Z,42.70
2019-04-10T06:11:17.169Z,51.53
2019-04-10T06:13:46.198Z,40.48
2019-04-10T06:16:15.382Z,45.45
2019-04-10T06:18:45.194Z,44.45
2019-04-10T06:21:14.734Z,46.68
2019-04-10T06:23:43.981Z,42.95
2019-04-10T06:26:15.586Z,45.20
2019-04-10T06:28:43.655Z,46.30
2019-04-10T06:31:12.594Z,44.73
2019-04-10T06:33:42.495Z,48.85
2019-04-10T06:36:11.610Z,42.50
2019-04-10T06:38:41.182Z,46.35
2019-04-10T06:41:10.540Z,45.05
2019-04-10T06:43:39.596Z,43.83
2019-04-10T06:46:08.649Z,43.30
2019-04-10T06:48:38.416Z,44.90
2019-04-10T06:51:08.206Z,42.65
2019-04-10T06:53:37.466Z,43.08
2019-04-10T06:56:06.977Z,43.92
2019-04-10T06:58:36.125Z,43.92
2019-04-10T07:01:06.217Z,42.55
2019-04-10T07:03:49.663Z,39.40
2019-04-10T07:06:14.371Z,37.33
2019-04-10T07:08:38.110Z,34.27
2019-04-10T07:11:10.065Z,36.03
2019-04-10T07:13:40.069Z,33.65
2019-04-10T07:16:10.221Z,33.42
2019-04-10T07:18:40.134Z,35.60
2019-04-10T07:21:10.649Z,35.23
2019-04-10T07:23:40.761Z,35.28
2019-04-10T07:26:10.168Z,34.43
2019-04-10T07:28:43.961Z,33.55
2019-04-10T07:31:11.273Z,37.28
2019-04-10T07:33:40.643Z,32.33
2019-04-10T07:36:13.640Z,32.58
2019-04-10T07:38:41.332Z,32.50
2019-04-10T07:41:16.591Z,31.73
2019-04-10T07:43:41.068Z,32.58
2019-04-10T07:46:10.077Z,30.48
2019-04-10T07:48:39.035Z,31.02
2019-04-10T07:51:09.017Z,28.70
2019-04-10T07:53:38.117Z,28.67
2019-04-10T07:56:13.089Z,29.60
2019-04-10T07:58:38.004Z,31.55
2019-04-10T08:01:07.894Z,30.82
2019-04-10T08:03:38.001Z,31.62
2019-04-10T08:06:06.977Z,31.17
2019-04-10T08:08:36.261Z,32.30
2019-04-10T08:11:05.646Z,30.77
2019-04-10T08:13:34.647Z,36.20
2019-04-10T08:16:03.881Z,37.05
2019-04-10T08:18:35.104Z,36.88
2019-04-10T08:21:04.970Z,35.00
2019-04-10T08:23:34.084Z,33.55
2019-04-10T08:26:03.622Z,31.52
2019-04-10T08:28:32.878Z,29.77
2019-04-10T08:31:02.223Z,29.12
2019-04-10T08:33:32.184Z,31.17
2019-04-10T08:36:01.284Z,31.97
2019-04-10T08:38:30.406Z,28.38
2019-04-10T08:41:00.632Z,30.65
2019-04-10T08:43:30.931Z,29.45
2019-04-10T08:46:01.787Z,27.75
2019-04-10T08:48:31.964Z,33.75
2019-04-10T08:51:01.658Z,31.85
2019-04-10T08:53:30.704Z,32.67
2019-04-10T08:55:59.767Z,33.10
2019-04-10T08:58:28.836Z,33.25
2019-04-10T09:00:58.703Z,32.67
2019-04-10T09:03:27.791Z,28.45
2019-04-10T09:05:57.067Z,28.90
2019-04-10T09:08:30.263Z,30.25
2019-04-10T09:10:59.283Z,30.60
2019-04-10T09:13:28.519Z,31.68
2019-04-10T09:15:58.377Z,29.52
2019-04-10T09:18:27.525Z,28.10
2019-04-10T09:20:57.895Z,30.57
2019-04-10T09:23:39.094Z,27.17
2019-04-10T09:26:01.857Z,28.25
2019-04-10T09:28:30.928Z,29.72
2019-04-10T09:31:00.003Z,29.50
2019-04-10T09:33:30.754Z,28.40
2019-04-10T09:36:00.593Z,31.25
2019-04-10T09:38:30.643Z,27.77
2019-04-10T09:40:59.850Z,29.95
2019-04-10T09:43:29.620Z,32.42
2019-04-10T09:45:58.754Z,28.62
2019-04-10T09:48:27.764Z,28.55
2019-04-10T09:50:56.835Z,27.50
2019-04-10T09:53:26.724Z,30.27
2019-04-10T09:55:56.753Z,32.08
2019-04-10T09:58:26.192Z,28.65
2019-04-10T10:00:56.507Z,29.63
2019-04-10T10:03:26.297Z,30.17
2019-04-10T10:05:57.107Z,31.52
2019-04-10T10:08:26.867Z,28.70
2019-04-10T10:10:55.975Z,33.53
2019-04-10T10:13:25.602Z,31.57
2019-04-10T10:15:54.875Z,29.23
2019-04-10T10:18:25.497Z,30.55
2019-04-10T10:20:54.750Z,28.92
2019-04-10T10:23:23.801Z,30.23
2019-04-10T10:25:53.302Z,31.97
2019-04-10T10:28:22.869Z,33.85
2019-04-10T10:30:52.063Z,33.92
2019-04-10T10:33:21.621Z,32.45
2019-04-10T10:35:51.538Z,34.13
2019-04-10T10:38:21.162Z,34.03
2019-04-10T10:40:50.826Z,35.35
2019-04-10T10:43:20.508Z,33.15
2019-04-10T10:45:49.844Z,31.27
2019-04-10T10:48:19.866Z,34.60
2019-04-10T10:50:49.866Z,34.00
2019-04-10T10:53:19.880Z,36.05
2019-04-10T10:55:49.708Z,32.08
2019-04-10T10:58:19.666Z,32.85
2019-04-10T11:00:50.074Z,32.73
2019-04-10T11:03:20.411Z,31.73
2019-04-10T11:05:50.648Z,35.98
2019-04-10T11:08:20.823Z,35.35
2019-04-10T11:10:55.701Z,34.48
2019-04-10T11:13:22.562Z,33.33
2019-04-10T11:15:52.477Z,33.33
2019-04-10T11:18:22.233Z,32.05
2019-04-10T11:20:52.298Z,36.10
2019-04-10T11:23:22.118Z,32.83
2019-04-10T11:25:52.924Z,32.42
2019-04-10T11:28:28.672Z,33.02
2019-04-10T11:30:53.737Z,32.33
2019-04-10T11:33:22.788Z,34.95
2019-04-10T11:35:53.340Z,36.13
2019-04-10T11:38:22.822Z,36.05
2019-04-10T11:40:55.003Z,31.35
2019-04-10T11:43:24.860Z,28.87
2019-04-10T11:45:56.154Z,26.85
2019-04-10T11:48:25.536Z,26.85
2019-04-10T11:50:59.126Z,26.95
2019-04-10T11:53:27.335Z,28.60
2019-04-10T11:55:59.476Z,33.08
2019-04-10T11:58:28.934Z,35.20
2019-04-10T12:00:59.596Z,36.28
2019-04-10T12:03:28.728Z,34.23
2019-04-10T12:05:59.583Z,34.92
2019-04-10T12:08:50.426Z,33.67
2019-04-10T12:13:28.516Z,33.80
2019-04-10T12:15:58.869Z,32.98
2019-04-10T12:18:28.680Z,33.23
2019-04-10T12:20:58.267Z,30.35
2019-04-10T12:23:27.281Z,30.15
2019-04-10T12:25:56.283Z,30.70
2019-04-10T12:28:25.622Z,31.20
2019-04-10T12:30:55.472Z,32.73
2019-04-10T12:33:25.457Z,33.38
2019-04-10T12:35:54.651Z,31.48
2019-04-10T12:38:23.844Z,31.73
2019-04-10T12:40:53.013Z,30.68
2019-04-10T12:43:23.173Z,31.42
2019-04-10T12:45:52.677Z,30.12
2019-04-10T12:48:22.918Z,30.65
2019-04-10T12:50:53.055Z,30.75
2019-04-10T12:53:23.325Z,31.82
2019-04-10T12:55:53.581Z,34.43
2019-04-10T12:58:22.905Z,31.70
2019-04-10T13:00:52.201Z,33.13
2019-04-10T13:03:21.403Z,34.20
2019-04-10T13:05:51.447Z,33.63
2019-04-10T13:08:25.651Z,34.63
2019-04-10T13:10:51.958Z,35.70
2019-04-10T13:13:22.076Z,36.85
2019-04-10T13:15:51.904Z,35.48
2019-04-10T13:18:21.135Z,36.75
2019-04-10T13:20:50.301Z,35.52
2019-04-10T13:23:20.366Z,37.78
2019-04-10T13:25:55.446Z,36.08
2019-04-10T13:28:20.515Z,35.88
2019-04-10T13:30:53.850Z,36.03
2019-04-10T13:33:20.556Z,35.63
2019-04-10T13:35:49.537Z,36.83
2019-04-10T13:38:28.631Z,39.42
2019-04-10T13:40:50.147Z,38.65
2019-04-10T13:43:20.030Z,37.78
2019-04-10T13:45:49.261Z,39.10
2019-04-10T13:48:18.315Z,38.42
2019-04-10T13:50:47.289Z,40.83
2019-04-10T13:53:16.235Z,34.48
2019-04-10T13:55:45.370Z,37.80
2019-04-10T13:58:15.086Z,39.30
2019-04-10T14:00:45.113Z,36.90
2019-04-10T14:03:14.598Z,37.70
2019-04-10T14:05:43.628Z,36.88
2019-04-10T14:08:12.939Z,33.83
2019-04-10T14:10:42.029Z,36.85
2019-04-10T14:13:11.581Z,36.93
2019-04-10T14:15:40.853Z,39.75
2019-04-10T14:18:10.225Z,38.92
2019-04-10T14:20:39.562Z,39.33
2019-04-10T14:23:10.444Z,37.33
2019-04-10T14:25:58.257Z,38.58
2019-04-10T14:28:29.207Z,36.77
2019-04-10T14:31:00.032Z,39.13
2019-04-10T14:33:30.187Z,42.88
2019-04-10T14:36:00.011Z,42.35
2019-04-10T14:38:29.261Z,38.70
2019-04-10T14:40:58.347Z,40.03
2019-04-10T14:43:28.347Z,39.88
2019-04-10T14:45:57.621Z,41.73
2019-04-10T14:48:27.889Z,40.70
2019-04-10T14:50:57.662Z,47.83
2019-04-10T14:53:26.897Z,40.88
2019-04-10T14:55:55.946Z,46.42
2019-04-10T14:58:28.144Z,40.52
2019-04-10T15:00:57.720Z,46.37
2019-04-10T15:03:26.689Z,41.45
2019-04-10T15:05:57.111Z,40.83
2019-04-10T15:08:26.483Z,38.88
2019-04-10T15:10:55.552Z,43.95
2019-04-10T15:13:25.851Z,40.10
2019-04-10T15:15:55.104Z,42.90
2019-04-10T15:18:24.289Z,42.08
2019-04-10T15:20:54.287Z,47.30
2019-04-10T15:23:23.420Z,44.15
2019-04-10T15:25:52.832Z,41.35
2019-04-10T15:28:21.825Z,41.18
2019-04-10T15:30:50.905Z,40.73
2019-04-10T15:33:20.572Z,42.10
2019-04-10T15:35:49.808Z,43.78
2019-04-10T15:38:20.014Z,45.08
2019-04-10T15:40:50.320Z,41.55
2019-04-10T15:43:20.888Z,44.23
2019-04-10T15:45:50.426Z,44.25
2019-04-10T15:48:19.526Z,46.85
2019-04-10T15:50:49.709Z,45.80
2019-04-10T15:53:20.136Z,43.90
2019-04-10T15:55:49.626Z,45.88
2019-04-10T15:58:19.375Z,52.38
2019-04-10T16:01:14.049Z,46.35
2019-04-10T16:03:43.174Z,47.85
2019-04-10T16:06:13.280Z,46.80
2019-04-10T16:08:42.780Z,47.73
2019-04-10T16:11:30.021Z,48.85
2019-04-10T16:14:01.022Z,48.50
2019-04-10T16:16:32.042Z,48.87
2019-04-10T16:19:02.760Z,48.63
2019-04-10T16:21:31.932Z,50.38
2019-04-10T16:24:14.558Z,55.30
2019-04-10T16:26:43.822Z,48.00
2019-04-10T16:29:13.124Z,48.78
2019-04-10T16:31:42.129Z,51.92
2019-04-10T16:34:11.378Z,46.83
2019-04-10T16:36:41.664Z,49.08
2019-04-10T16:39:13.440Z,51.55
2019-04-10T16:41:43.970Z,48.08
2019-04-10T16:44:13.303Z,48.10
2019-04-10T16:46:42.547Z,48.90
2019-04-10T16:49:12.754Z,52.13
2019-04-10T16:51:42.625Z,50.52
2019-04-10T16:54:12.608Z,48.40
2019-04-10T16:56:42.229Z,51.30
2019-04-10T16:59:12.194Z,50.83
2019-04-10T17:01:41.259Z,50.35
2019-04-10T17:04:11.193Z,52.88
2019-04-10T17:06:40.372Z,49.85
2019-04-10T17:09:12.241Z,51.13
2019-04-10T17:11:41.402Z,50.65
2019-04-10T17:14:11.027Z,53.28
2019-04-10T17:16:40.171Z,58.95
2019-04-10T17:19:09.727Z,55.43
2019-04-10T17:21:39.053Z,55.63
2019-04-10T17:24:09.208Z,53.55
2019-04-10T17:26:39.189Z,59.25
2019-04-10T17:29:09.204Z,58.30
2019-04-10T17:31:38.466Z,57.70
2019-04-10T17:34:08.292Z,60.25
2019-04-10T17:36:37.351Z,64.12
2019-04-10T17:39:11.108Z,62.48
2019-04-10T17:41:41.809Z,61.80
2019-04-10T17:44:11.733Z,66.65
2019-04-10T17:46:41.609Z,67.40
2019-04-10T17:49:11.947Z,66.20
2019-04-10T17:51:41.881Z,73.90
2019-04-10T17:54:11.821Z,74.12
2019-04-10T17:56:41.114Z,73.52
2019-04-10T17:59:12.069Z,71.77
2019-04-10T18:01:41.585Z,77.15
2019-04-10T18:04:10.607Z,73.85
2019-04-10T18:06:39.673Z,72.03
2019-04-10T18:09:09.649Z,77.12
2019-04-10T18:11:39.508Z,71.17
2019-04-10T18:14:09.095Z,75.90
2019-04-10T18:16:38.462Z,77.20
2019-04-10T18:19:08.372Z,77.55
2019-04-10T18:21:39.205Z,74.58
2019-04-10T18:24:08.344Z,75.60
2019-04-10T18:26:37.312Z,82.02
2019-04-10T18:29:06.378Z,75.92
2019-04-10T18:31:36.745Z,74.90
2019-04-10T18:34:09.465Z,75.60
2019-04-10T18:36:36.639Z,80.60
2019-04-10T18:39:11.331Z,91.35
2019-04-10T18:41:40.215Z,82.57
2019-04-10T18:44:09.347Z,73.45
2019-04-10T18:46:39.494Z,83.95
2019-04-10T18:49:09.346Z,84.92
2019-04-10T18:51:38.928Z,86.22
2019-04-10T18:54:10.745Z,83.70
2019-04-10T18:56:39.083Z,82.10
2019-04-10T18:59:10.223Z,84.72
2019-04-10T19:01:56.751Z,92.82
2019-04-10T19:04:39.495Z,85.95
2019-04-10T19:07:09.134Z,91.17
2019-04-10T19:09:39.003Z,88.75
2019-04-10T19:12:08.485Z,91.78
2019-04-10T19:14:38.638Z,89.75
2019-04-10T19:17:09.087Z,87.57
2019-04-10T19:19:40.108Z,85.35
2019-04-10T19:22:11.220Z,86.70
2019-04-10T19:24:41.718Z,87.35
2019-04-10T19:27:11.816Z,90.90
2019-04-10T19:29:40.971Z,88.85
2019-04-10T19:32:12.056Z,88.85
2019-04-10T19:34:41.346Z,85.30
2019-04-10T19:37:10.554Z,85.60
2019-04-10T19:39:40.479Z,88.12
2019-04-10T19:42:09.831Z,88.37
2019-04-10T19:44:39.307Z,89.65
2019-04-10T19:47:08.412Z,84.07
2019-04-10T19:49:38.800Z,81.35
2019-04-10T19:52:08.620Z,83.67
2019-04-10T19:54:38.765Z,90.95
2019-04-10T19:57:08.932Z,81.97
2019-04-10T19:59:38.029Z,90.03
2019-04-10T20:02:07.271Z,91.67
2019-04-10T20:04:36.891Z,87.22
2019-04-10T20:07:06.841Z,88.95
2019-04-10T20:09:36.764Z,95.55
2019-04-10T20:12:06.549Z,87.50
2019-04-10T20:14:36.690Z,85.32
2019-04-10T20:17:06.103Z,82.15
2019-04-10T20:19:35.082Z,86.95
2019-04-10T20:22:04.575Z,83.05
2019-04-10T20:24:34.650Z,88.20
2019-04-10T20:27:03.913Z,83.40
2019-04-10T20:29:32.969Z,72.20
2019-04-10T20:32:02.285Z,69.37
2019-04-10T20:34:31.629Z,68.33
2019-04-10T20:37:06.617Z,68.87
2019-04-10T20:39:33.631Z,64.27
2019-04-10T20:42:02.953Z,63.65
2019-04-10T20:44:32.586Z,63.87
2019-04-10T20:47:02.527Z,60.03
2019-04-10T20:49:31.686Z,63.33
2019-04-10T20:52:01.894Z,57.93
2019-04-10T20:54:31.248Z,56.40
2019-04-10T20:57:01.165Z,58.20
2019-04-10T20:59:30.595Z,59.10
2019-04-10T21:02:00.003Z,58.40
2019-04-10T21:04:29.673Z,59.18
2019-04-10T21:06:58.807Z,53.98
2019-04-10T21:09:27.992Z,52.15
2019-04-10T21:12:03.885Z,56.85
2019-04-10T21:14:29.619Z,54.88
2019-04-10T21:16:58.788Z,58.90
2019-04-10T21:19:28.957Z,53.73
2019-04-10T21:21:58.226Z,55.95
2019-04-10T21:24:27.587Z,53.25
2019-04-10T21:26:56.973Z,54.55
2019-04-10T21:29:44.241Z,55.50
2019-04-10T21:32:28.147Z,49.53
2019-04-10T21:34:57.871Z,48.90
2019-04-10T21:37:26.858Z,51.92
2019-04-10T21:39:56.262Z,49.63
2019-04-10T21:42:26.845Z,52.85
2019-04-10T21:44:56.011Z,50.10
2019-04-10T21:47:25.668Z,50.60
2019-04-10T21:49:54.955Z,50.00
2019-04-10T21:52:25.019Z,50.92
2019-04-10T21:54:57.815Z,51.80
2019-04-10T21:57:26.365Z,50.10
2019-04-10T21:59:56.028Z,51.63
2019-04-10T22:02:25.236Z,49.27
2019-04-10T22:04:55.275Z,52.00
2019-04-10T22:07:28.971Z,51.20
2019-04-10T22:10:15.972Z,51.75
2019-04-10T22:12:47.725Z,47.00
2019-04-10T22:15:35.070Z,48.45
2019-04-10T22:18:05.147Z,49.98
2019-04-10T22:20:34.345Z,53.23
2019-04-10T22:23:04.034Z,48.95
2019-04-10T22:25:33.614Z,48.05
2019-04-10T22:28:04.165Z,50.17
2019-04-10T22:30:33.537Z,52.13
2019-04-10T22:33:03.289Z,46.40
2019-04-10T22:35:33.488Z,48.80
2019-04-10T22:38:02.698Z,47.58
2019-04-10T22:40:31.901Z,52.45
2019-04-10T22:43:01.119Z,50.40
2019-04-10T22:45:32.664Z,48.90
2019-04-10T22:48:02.188Z,45.17
2019-04-10T22:50:31.184Z,47.70
2019-04-10T22:53:01.372Z,52.45
2019-04-10T22:55:31.799Z,48.15
2019-04-10T22:58:02.389Z,51.95
2019-04-10T23:00:32.603Z,48.50
2019-04-10T23:03:03.159Z,52.30
2019-04-10T23:05:32.549Z,48.87
2019-04-10T23:08:01.561Z,46.63
2019-04-10T23:10:30.678Z,48.25
2019-04-10T23:13:04.406Z,47.00
2019-04-10T23:15:31.425Z,48.70
2019-04-10T23:18:01.273Z,46.85
2019-04-10T23:20:30.482Z,49.45
2019-04-10T23:23:00.898Z,45.98
2019-04-10T23:25:30.108Z,49.95
2019-04-10T23:27:59.135Z,45.48
2019-04-10T23:30:28.719Z,48.55
2019-04-10T23:32:57.903Z,45.52
2019-04-10T23:35:27.644Z,46.37
2019-04-10T23:37:57.407Z,49.63
2019-04-10T23:40:27.205Z,46.85
2019-04-10T23:43:07.726Z,49.45
2019-04-10T23:45:27.318Z,45.55
2019-04-10T23:47:56.443Z,49.30
2019-04-10T23:50:26.151Z,48.17
2019-04-10T23:52:56.234Z,47.33
2019-04-10T23:55:26.159Z,49.65
2019-04-10T23:57:55.861Z,47.67
